sensor_id;sensor_type;location;lat;lon;timestamp;pressure;altitude;pressure_sealevel;temperature;humidity
45285;BME280;31026;43.780;25.948;2022-09-09T00:01:17;100847.34;;;23.98;64.91
45285;BME280;31026;43.780;25.948;2022-09-09T00:03:57;100844.97;;;23.95;64.64
45285;BME280;31026;43.780;25.948;2022-09-09T00:06:28;100856.78;;;23.94;64.65
45285;BME280;31026;43.780;25.948;2022-09-09T00:09:01;100847.81;;;23.93;64.55
45285;BME280;31026;43.780;25.948;2022-09-09T00:11:34;100845.97;;;23.94;64.80
45285;BME280;31026;43.780;25.948;2022-09-09T00:14:07;100846.66;;;23.96;64.80
45285;BME280;31026;43.780;25.948;2022-09-09T00:16:36;100864.91;;;23.94;64.75
45285;BME280;31026;43.780;25.948;2022-09-09T00:19:12;100855.44;;;23.90;64.63
45285;BME280;31026;43.780;25.948;2022-09-09T00:21:45;100847.13;;;23.91;64.75
45285;BME280;31026;43.780;25.948;2022-09-09T00:24:22;100861.16;;;23.95;64.61
45285;BME280;31026;43.780;25.948;2022-09-09T00:26:53;100852.53;;;23.91;64.75
45285;BME280;31026;43.780;25.948;2022-09-09T00:29:24;100861.31;;;23.93;64.73
45285;BME280;31026;43.780;25.948;2022-09-09T00:32:00;100847.66;;;23.95;64.78
45285;BME280;31026;43.780;25.948;2022-09-09T00:34:36;100856.78;;;23.94;64.92
45285;BME280;31026;43.780;25.948;2022-09-09T00:37:07;100849.53;;;23.94;64.70
45285;BME280;31026;43.780;25.948;2022-09-09T00:39:37;100853.59;;;23.98;64.74
45285;BME280;31026;43.780;25.948;2022-09-09T00:42:11;100853.22;;;23.93;64.76
45285;BME280;31026;43.780;25.948;2022-09-09T00:44:46;100856.78;;;23.94;64.72
45285;BME280;31026;43.780;25.948;2022-09-09T00:50:08;100838.88;;;23.93;64.76
45285;BME280;31026;43.780;25.948;2022-09-09T00:52:39;100866.41;;;23.96;64.76
45285;BME280;31026;43.780;25.948;2022-09-09T00:55:12;100853.41;;;23.92;64.77
45285;BME280;31026;43.780;25.948;2022-09-09T00:57:44;100840.91;;;23.91;64.96
45285;BME280;31026;43.780;25.948;2022-09-09T01:00:20;100849.00;;;23.91;64.89
45285;BME280;31026;43.780;25.948;2022-09-09T01:02:52;100850.03;;;23.90;64.71
45285;BME280;31026;43.780;25.948;2022-09-09T01:05:25;100829.25;;;23.90;64.78
45285;BME280;31026;43.780;25.948;2022-09-09T01:07:55;100846.81;;;23.94;64.59
45285;BME280;31026;43.780;25.948;2022-09-09T01:10:27;100851.38;;;23.94;64.83
45285;BME280;31026;43.780;25.948;2022-09-09T01:13:02;100844.63;;;23.90;64.96
45285;BME280;31026;43.780;25.948;2022-09-09T01:15:33;100841.75;;;23.91;64.87
45285;BME280;31026;43.780;25.948;2022-09-09T01:18:04;100848.50;;;23.95;64.72
45285;BME280;31026;43.780;25.948;2022-09-09T01:20:39;100840.91;;;23.91;64.77
45285;BME280;31026;43.780;25.948;2022-09-09T01:23:19;100855.09;;;23.93;64.93
45285;BME280;31026;43.780;25.948;2022-09-09T01:26:11;100835.50;;;23.91;64.78
45285;BME280;31026;43.780;25.948;2022-09-09T01:28:42;100831.97;;;23.90;64.76
45285;BME280;31026;43.780;25.948;2022-09-09T01:31:11;100829.09;;;23.92;64.88
45285;BME280;31026;43.780;25.948;2022-09-09T01:33:42;100826.41;;;23.92;64.84
45285;BME280;31026;43.780;25.948;2022-09-09T01:36:11;100821.84;;;23.92;64.69
45285;BME280;31026;43.780;25.948;2022-09-09T01:38:41;100818.31;;;23.92;64.68
45285;BME280;31026;43.780;25.948;2022-09-09T01:41:12;100826.41;;;23.92;64.73
45285;BME280;31026;43.780;25.948;2022-09-09T01:43:40;100812.22;;;23.90;64.74
45285;BME280;31026;43.780;25.948;2022-09-09T01:46:08;100810.50;;;23.89;64.58
45285;BME280;31026;43.780;25.948;2022-09-09T01:48:37;100824.69;;;23.91;64.80
45285;BME280;31026;43.780;25.948;2022-09-09T01:51:07;100818.63;;;23.89;64.76
45285;BME280;31026;43.780;25.948;2022-09-09T01:53:35;100828.44;;;23.90;64.82
45285;BME280;31026;43.780;25.948;2022-09-09T01:56:07;100809.69;;;23.88;64.63
45285;BME280;31026;43.780;25.948;2022-09-09T01:58:44;100817.63;;;23.90;64.91
45285;BME280;31026;43.780;25.948;2022-09-09T02:01:16;100817.94;;;23.87;64.95
45285;BME280;31026;43.780;25.948;2022-09-09T02:03:49;100821.31;;;23.89;64.66
45285;BME280;31026;43.780;25.948;2022-09-09T02:06:24;100831.81;;;23.92;64.95
45285;BME280;31026;43.780;25.948;2022-09-09T02:08:55;100817.09;;;23.86;64.78
45285;BME280;31026;43.780;25.948;2022-09-09T02:11:25;100822.50;;;23.86;64.81
45285;BME280;31026;43.780;25.948;2022-09-09T02:13:57;100817.94;;;23.87;64.88
45285;BME280;31026;43.780;25.948;2022-09-09T02:16:30;100821.47;;;23.87;64.70
45285;BME280;31026;43.780;25.948;2022-09-09T02:19:02;100814.25;;;23.88;64.58
45285;BME280;31026;43.780;25.948;2022-09-09T02:21:34;100810.19;;;23.92;64.71
45285;BME280;31026;43.780;25.948;2022-09-09T02:24:04;100822.00;;;23.91;64.67
45285;BME280;31026;43.780;25.948;2022-09-09T02:26:34;100823.03;;;23.90;64.65
45285;BME280;31026;43.780;25.948;2022-09-09T02:29:08;100821.47;;;23.87;64.60
45285;BME280;31026;43.780;25.948;2022-09-09T02:31:38;100819.66;;;23.88;64.64
45285;BME280;31026;43.780;25.948;2022-09-09T02:34:07;100817.63;;;23.90;64.76
45285;BME280;31026;43.780;25.948;2022-09-09T02:36:38;100829.41;;;23.89;64.77
45285;BME280;31026;43.780;25.948;2022-09-09T02:39:08;100841.25;;;23.88;64.80
45285;BME280;31026;43.780;25.948;2022-09-09T02:41:38;100840.22;;;23.89;64.72
45285;BME280;31026;43.780;25.948;2022-09-09T02:44:12;100842.94;;;23.89;64.87
45285;BME280;31026;43.780;25.948;2022-09-09T02:46:56;100828.91;;;23.85;64.72
45285;BME280;31026;43.780;25.948;2022-09-09T02:49:31;100830.09;;;23.82;64.63
45285;BME280;31026;43.780;25.948;2022-09-09T02:52:04;100836.84;;;23.87;64.86
45285;BME280;31026;43.780;25.948;2022-09-09T02:54:34;100829.78;;;23.86;64.71
45285;BME280;31026;43.780;25.948;2022-09-09T02:57:05;100825.88;;;23.88;64.69
45285;BME280;31026;43.780;25.948;2022-09-09T02:59:38;100825.22;;;23.86;64.67
45285;BME280;31026;43.780;25.948;2022-09-09T03:02:07;100826.72;;;23.89;64.91
45285;BME280;31026;43.780;25.948;2022-09-09T03:04:36;100827.38;;;23.82;64.92
45285;BME280;31026;43.780;25.948;2022-09-09T03:07:04;100830.75;;;23.85;64.82
45285;BME280;31026;43.780;25.948;2022-09-09T03:09:33;100819.28;;;23.82;64.75
45285;BME280;31026;43.780;25.948;2022-09-09T03:12:01;100827.22;;;23.84;64.93
45285;BME280;31026;43.780;25.948;2022-09-09T03:14:30;100817.41;;;23.83;64.84
45285;BME280;31026;43.780;25.948;2022-09-09T03:17:01;100826.19;;;23.85;64.61
45285;BME280;31026;43.780;25.948;2022-09-09T03:19:29;100815.59;;;23.84;64.59
45285;BME280;31026;43.780;25.948;2022-09-09T03:21:58;100825.03;;;23.88;64.81
45285;BME280;31026;43.780;25.948;2022-09-09T03:24:26;100805.78;;;23.82;64.61
45285;BME280;31026;43.780;25.948;2022-09-09T03:26:55;100819.28;;;23.82;64.85
45285;BME280;31026;43.780;25.948;2022-09-09T03:29:23;100813.72;;;23.84;64.96
45285;BME280;31026;43.780;25.948;2022-09-09T03:31:52;100817.25;;;23.85;64.72
45285;BME280;31026;43.780;25.948;2022-09-09T03:34:23;100818.78;;;23.87;64.93
45285;BME280;31026;43.780;25.948;2022-09-09T03:36:52;100807.81;;;23.80;64.80
45285;BME280;31026;43.780;25.948;2022-09-09T03:39:20;100819.97;;;23.85;64.75
45285;BME280;31026;43.780;25.948;2022-09-09T03:41:49;100818.28;;;23.84;64.61
45285;BME280;31026;43.780;25.948;2022-09-09T03:44:17;100818.97;;;23.86;64.93
45285;BME280;31026;43.780;25.948;2022-09-09T03:46:46;100821.97;;;23.82;64.99
45285;BME280;31026;43.780;25.948;2022-09-09T03:49:14;100826.41;;;23.84;64.71
45285;BME280;31026;43.780;25.948;2022-09-09T03:51:45;100821.66;;;23.86;64.95
45285;BME280;31026;43.780;25.948;2022-09-09T03:54:14;100817.25;;;23.85;64.65
45285;BME280;31026;43.780;25.948;2022-09-09T03:56:42;100819.78;;;23.78;64.81
45285;BME280;31026;43.780;25.948;2022-09-09T03:59:10;100825.72;;;23.81;64.84
45285;BME280;31026;43.780;25.948;2022-09-09T04:01:39;100816.91;;;23.79;65.00
45285;BME280;31026;43.780;25.948;2022-09-09T04:04:07;100836.69;;;23.80;64.90
45285;BME280;31026;43.780;25.948;2022-09-09T04:06:37;100828.22;;;23.83;64.76
45285;BME280;31026;43.780;25.948;2022-09-09T04:09:08;100830.09;;;23.82;64.88
45285;BME280;31026;43.780;25.948;2022-09-09T04:11:36;100821.47;;;23.79;65.00
45285;BME280;31026;43.780;25.948;2022-09-09T04:14:05;100830.25;;;23.81;64.84
45285;BME280;31026;43.780;25.948;2022-09-09T04:16:34;100829.41;;;23.80;64.65
45285;BME280;31026;43.780;25.948;2022-09-09T04:19:03;100834.50;;;23.84;64.68
45285;BME280;31026;43.780;25.948;2022-09-09T04:21:32;100837.69;;;23.87;64.76
45285;BME280;31026;43.780;25.948;2022-09-09T04:24:01;100839.91;;;23.84;64.54
45285;BME280;31026;43.780;25.948;2022-09-09T04:26:32;100832.78;;;23.82;64.78
45285;BME280;31026;43.780;25.948;2022-09-09T04:29:01;100823.34;;;23.87;64.54
45285;BME280;31026;43.780;25.948;2022-09-09T04:31:30;100836.84;;;23.87;64.70
45285;BME280;31026;43.780;25.948;2022-09-09T04:33:59;100812.03;;;23.83;64.68
45285;BME280;31026;43.780;25.948;2022-09-09T04:36:30;100836.16;;;23.85;64.80
45285;BME280;31026;43.780;25.948;2022-09-09T04:38:58;100828.06;;;23.85;64.52
45285;BME280;31026;43.780;25.948;2022-09-09T04:41:27;100838.72;;;23.86;64.79
45285;BME280;31026;43.780;25.948;2022-09-09T04:43:59;100833.31;;;23.86;64.74
45285;BME280;31026;43.780;25.948;2022-09-09T04:46:28;100837.00;;;23.85;64.82
45285;BME280;31026;43.780;25.948;2022-09-09T04:48:59;100837.88;;;23.86;64.85
45285;BME280;31026;43.780;25.948;2022-09-09T04:51:27;100837.69;;;23.87;64.72
45285;BME280;31026;43.780;25.948;2022-09-09T04:53:56;100838.72;;;23.86;64.57
45285;BME280;31026;43.780;25.948;2022-09-09T04:56:24;100842.41;;;23.85;64.66
45285;BME280;31026;43.780;25.948;2022-09-09T04:58:54;100838.88;;;23.85;64.66
45285;BME280;31026;43.780;25.948;2022-09-09T05:01:25;100832.78;;;23.82;64.54
45285;BME280;31026;43.780;25.948;2022-09-09T05:03:54;100827.06;;;23.86;64.64
45285;BME280;31026;43.780;25.948;2022-09-09T05:06:23;100837.69;;;23.87;64.38
45285;BME280;31026;43.780;25.948;2022-09-09T05:08:51;100834.81;;;23.89;64.76
45285;BME280;31026;43.780;25.948;2022-09-09T05:11:20;100828.44;;;23.90;64.48
45285;BME280;31026;43.780;25.948;2022-09-09T05:13:49;100848.84;;;23.92;64.45
45285;BME280;31026;43.780;25.948;2022-09-09T05:16:19;100839.22;;;23.90;64.54
45285;BME280;31026;43.780;25.948;2022-09-09T05:18:50;100832.28;;;23.95;64.59
45285;BME280;31026;43.780;25.948;2022-09-09T05:21:20;100824.38;;;23.94;64.41
45285;BME280;31026;43.780;25.948;2022-09-09T05:23:49;100839.06;;;23.99;64.34
45285;BME280;31026;43.780;25.948;2022-09-09T05:26:18;100834.84;;;23.97;64.16
45285;BME280;31026;43.780;25.948;2022-09-09T05:28:47;100842.47;;;24.01;64.26
45285;BME280;31026;43.780;25.948;2022-09-09T05:31:16;100833.16;;;24.04;64.10
45285;BME280;31026;43.780;25.948;2022-09-09T05:33:45;100836.53;;;24.06;64.22
45285;BME280;31026;43.780;25.948;2022-09-09T05:36:17;100834.16;;;24.03;64.30
45285;BME280;31026;43.780;25.948;2022-09-09T05:38:46;100832.13;;;24.05;64.23
45285;BME280;31026;43.780;25.948;2022-09-09T05:41:15;100849.03;;;24.07;63.96
45285;BME280;31026;43.780;25.948;2022-09-09T05:43:45;100822.34;;;24.04;64.00
45285;BME280;31026;43.780;25.948;2022-09-09T05:46:14;100824.72;;;24.07;63.93
45285;BME280;31026;43.780;25.948;2022-09-09T05:48:43;100830.47;;;24.04;64.09
45285;BME280;31026;43.780;25.948;2022-09-09T05:51:13;100823.34;;;24.11;63.73
45285;BME280;31026;43.780;25.948;2022-09-09T05:53:45;100827.75;;;24.12;63.92
45285;BME280;31026;43.780;25.948;2022-09-09T05:56:14;100802.78;;;24.10;63.79
45285;BME280;31026;43.780;25.948;2022-09-09T05:58:44;100802.44;;;24.13;63.74
45285;BME280;31026;43.780;25.948;2022-09-09T06:01:13;100812.91;;;24.16;63.72
45285;BME280;31026;43.780;25.948;2022-09-09T06:03:42;100812.38;;;24.21;63.75
45285;BME280;31026;43.780;25.948;2022-09-09T06:06:12;100822.34;;;24.20;63.80
45285;BME280;31026;43.780;25.948;2022-09-09T06:08:41;100809.53;;;24.22;63.49
45285;BME280;31026;43.780;25.948;2022-09-09T06:11:13;100798.41;;;24.17;63.75
45285;BME280;31026;43.780;25.948;2022-09-09T06:13:42;100795.50;;;24.19;63.40
45285;BME280;31026;43.780;25.948;2022-09-09T06:16:11;100787.59;;;24.26;63.79
45285;BME280;31026;43.780;25.948;2022-09-09T06:18:40;100789.59;;;24.24;63.67
45285;BME280;31026;43.780;25.948;2022-09-09T06:21:09;100783.34;;;24.23;63.63
45285;BME280;31026;43.780;25.948;2022-09-09T06:23:39;100784.22;;;24.24;63.49
45285;BME280;31026;43.780;25.948;2022-09-09T06:26:09;100787.59;;;24.26;63.59
45285;BME280;31026;43.780;25.948;2022-09-09T06:28:41;100802.75;;;24.27;63.79
45285;BME280;31026;43.780;25.948;2022-09-09T06:31:11;100788.75;;;24.23;63.71
45285;BME280;31026;43.780;25.948;2022-09-09T06:33:41;100793.16;;;24.24;63.51
45285;BME280;31026;43.780;25.948;2022-09-09T06:36:11;100792.31;;;24.24;63.76
45285;BME280;31026;43.780;25.948;2022-09-09T06:38:40;100801.41;;;24.22;63.70
45285;BME280;31026;43.780;25.948;2022-09-09T06:41:08;100799.38;;;24.25;63.88
45285;BME280;31026;43.780;25.948;2022-09-09T06:43:37;100789.78;;;24.22;63.68
45285;BME280;31026;43.780;25.948;2022-09-09T06:46:10;100801.09;;;24.26;63.89
45285;BME280;31026;43.780;25.948;2022-09-09T06:48:38;100784.22;;;24.24;63.58
45285;BME280;31026;43.780;25.948;2022-09-09T06:51:10;100783.19;;;24.25;63.86
45285;BME280;31026;43.780;25.948;2022-09-09T06:53:40;100781.31;;;24.25;63.91
45285;BME280;31026;43.780;25.948;2022-09-09T06:56:19;100790.59;;;24.22;63.54
45285;BME280;31026;43.780;25.948;2022-09-09T06:58:48;100795.50;;;24.27;63.92
45285;BME280;31026;43.780;25.948;2022-09-09T07:01:20;100801.78;;;24.28;63.71
45285;BME280;31026;43.780;25.948;2022-09-09T07:03:50;100798.38;;;24.26;63.70
45285;BME280;31026;43.780;25.948;2022-09-09T07:06:20;100789.75;;;24.30;63.72
45285;BME280;31026;43.780;25.948;2022-09-09T07:08:49;100796.19;;;24.29;63.79
45285;BME280;31026;43.780;25.948;2022-09-09T07:11:18;100793.31;;;24.31;63.74
45285;BME280;31026;43.780;25.948;2022-09-09T07:13:47;100791.63;;;24.30;63.75
45285;BME280;31026;43.780;25.948;2022-09-09T07:16:17;100791.09;;;24.34;63.73
45285;BME280;31026;43.780;25.948;2022-09-09T07:18:51;100792.13;;;24.33;63.52
45285;BME280;31026;43.780;25.948;2022-09-09T07:21:23;100789.59;;;24.32;63.76
45285;BME280;31026;43.780;25.948;2022-09-09T07:23:52;100800.06;;;24.35;63.59
45285;BME280;31026;43.780;25.948;2022-09-09T07:26:21;100802.09;;;24.33;63.66
45285;BME280;31026;43.780;25.948;2022-09-09T07:28:50;100789.59;;;24.32;63.83
45285;BME280;31026;43.780;25.948;2022-09-09T07:31:20;100774.22;;;24.32;63.89
45285;BME280;31026;43.780;25.948;2022-09-09T07:33:51;100792.13;;;24.33;63.68
45285;BME280;31026;43.780;25.948;2022-09-09T07:36:20;100786.53;;;24.35;63.72
45285;BME280;31026;43.780;25.948;2022-09-09T07:38:50;100795.84;;;24.32;63.49
45285;BME280;31026;43.780;25.948;2022-09-09T07:41:19;100789.25;;;24.35;63.87
45285;BME280;31026;43.780;25.948;2022-09-09T07:43:51;100791.94;;;24.35;63.79
45285;BME280;31026;43.780;25.948;2022-09-09T07:46:21;100802.59;;;24.36;63.77
45285;BME280;31026;43.780;25.948;2022-09-09T07:48:53;100811.53;;;24.37;63.55
45285;BME280;31026;43.780;25.948;2022-09-09T07:51:24;100810.53;;;24.38;63.61
45285;BME280;31026;43.780;25.948;2022-09-09T07:53:54;100812.56;;;24.36;63.63
45285;BME280;31026;43.780;25.948;2022-09-09T07:56:23;100817.31;;;24.34;63.62
45285;BME280;31026;43.780;25.948;2022-09-09T07:58:52;100798.53;;;24.32;63.87
45285;BME280;31026;43.780;25.948;2022-09-09T08:01:21;100791.28;;;24.33;63.74
45285;BME280;31026;43.780;25.948;2022-09-09T08:03:55;100784.88;;;24.34;63.99
45285;BME280;31026;43.780;25.948;2022-09-09T08:06:24;100795.31;;;24.37;63.64
45285;BME280;31026;43.780;25.948;2022-09-09T08:08:53;100788.91;;;24.38;63.88
45285;BME280;31026;43.780;25.948;2022-09-09T08:11:22;100788.09;;;24.37;63.61
45285;BME280;31026;43.780;25.948;2022-09-09T08:13:51;100792.28;;;24.40;63.87
45285;BME280;31026;43.780;25.948;2022-09-09T08:16:20;100799.88;;;24.36;63.75
45285;BME280;31026;43.780;25.948;2022-09-09T08:18:49;100792.47;;;24.38;63.59
45285;BME280;31026;43.780;25.948;2022-09-09T08:21:22;100808.50;;;24.40;63.66
45285;BME280;31026;43.780;25.948;2022-09-09T08:23:52;100810.03;;;24.42;63.85
45285;BME280;31026;43.780;25.948;2022-09-09T08:26:21;100783.16;;;24.41;63.99
45285;BME280;31026;43.780;25.948;2022-09-09T08:28:50;100774.03;;;24.42;63.56
45285;BME280;31026;43.780;25.948;2022-09-09T08:31:20;100774.03;;;24.42;63.82
45285;BME280;31026;43.780;25.948;2022-09-09T08:33:48;100763.56;;;24.39;63.81
45285;BME280;31026;43.780;25.948;2022-09-09T08:36:17;100764.22;;;24.41;63.97
45285;BME280;31026;43.780;25.948;2022-09-09T08:38:50;100763.91;;;24.44;63.64
45285;BME280;31026;43.780;25.948;2022-09-09T08:41:39;100765.78;;;24.44;63.88
45285;BME280;31026;43.780;25.948;2022-09-09T08:44:13;100775.38;;;24.46;63.61
45285;BME280;31026;43.780;25.948;2022-09-09T08:46:50;100764.06;;;24.42;63.58
45285;BME280;31026;43.780;25.948;2022-09-09T08:49:30;100751.59;;;24.41;63.63
45285;BME280;31026;43.780;25.948;2022-09-09T08:52:08;100744.16;;;24.44;63.57
45285;BME280;31026;43.780;25.948;2022-09-09T08:54:43;100739.06;;;24.40;63.79
45285;BME280;31026;43.780;25.948;2022-09-09T08:57:13;100745.97;;;24.43;63.66
45285;BME280;31026;43.780;25.948;2022-09-09T08:59:43;100738.75;;;24.44;63.52
45285;BME280;31026;43.780;25.948;2022-09-09T09:02:14;100751.72;;;24.48;63.88
45285;BME280;31026;43.780;25.948;2022-09-09T09:04:46;100741.75;;;24.49;63.87
45285;BME280;31026;43.780;25.948;2022-09-09T09:07:23;100748.19;;;24.48;63.79
45285;BME280;31026;43.780;25.948;2022-09-09T09:10:00;100737.88;;;24.43;63.60
45285;BME280;31026;43.780;25.948;2022-09-09T09:12:32;100725.22;;;24.44;63.66
45285;BME280;31026;43.780;25.948;2022-09-09T09:15:05;100725.03;;;24.45;63.66
45285;BME280;31026;43.780;25.948;2022-09-09T09:17:39;100718.94;;;24.43;63.93
45285;BME280;31026;43.780;25.948;2022-09-09T09:20:11;100724.34;;;24.43;63.90
45285;BME280;31026;43.780;25.948;2022-09-09T09:22:43;100727.72;;;24.45;63.79
45285;BME280;31026;43.780;25.948;2022-09-09T09:25:18;100749.19;;;24.47;63.92
45285;BME280;31026;43.780;25.948;2022-09-09T09:27:49;100735.16;;;24.43;63.91
45285;BME280;31026;43.780;25.948;2022-09-09T09:30:21;100724.34;;;24.43;63.86
45285;BME280;31026;43.780;25.948;2022-09-09T09:32:51;100721.31;;;24.46;63.92
45285;BME280;31026;43.780;25.948;2022-09-09T09:35:21;100712.22;;;24.47;64.05
45285;BME280;31026;43.780;25.948;2022-09-09T09:37:49;100717.63;;;24.47;63.69
45285;BME280;31026;43.780;25.948;2022-09-09T09:40:21;100705.09;;;24.46;64.01
45285;BME280;31026;43.780;25.948;2022-09-09T09:42:51;100714.22;;;24.45;63.80
45285;BME280;31026;43.780;25.948;2022-09-09T09:45:25;100705.44;;;24.43;63.84
45285;BME280;31026;43.780;25.948;2022-09-09T09:48:00;100696.31;;;24.44;63.99
45285;BME280;31026;43.780;25.948;2022-09-09T09:50:30;100698.88;;;24.46;63.92
45285;BME280;31026;43.780;25.948;2022-09-09T09:53:00;100711.72;;;24.44;64.05
45285;BME280;31026;43.780;25.948;2022-09-09T09:55:33;100700.69;;;24.45;63.91
45285;BME280;31026;43.780;25.948;2022-09-09T09:58:03;100698.00;;;24.45;64.09
45285;BME280;31026;43.780;25.948;2022-09-09T10:00:32;100715.59;;;24.49;63.79
45285;BME280;31026;43.780;25.948;2022-09-09T10:03:01;100709.31;;;24.49;63.79
45285;BME280;31026;43.780;25.948;2022-09-09T10:05:30;100703.25;;;24.47;63.92
45285;BME280;31026;43.780;25.948;2022-09-09T10:08:03;100702.78;;;24.51;63.91
45285;BME280;31026;43.780;25.948;2022-09-09T10:10:40;100706.81;;;24.47;64.10
45285;BME280;31026;43.780;25.948;2022-09-09T10:13:15;100710.19;;;24.49;63.88
45285;BME280;31026;43.780;25.948;2022-09-09T10:15:48;100704.78;;;24.49;63.86
45285;BME280;31026;43.780;25.948;2022-09-09T10:21:16;100711.56;;;24.53;63.71
45285;BME280;31026;43.780;25.948;2022-09-09T10:23:54;100711.00;;;24.50;63.75
45285;BME280;31026;43.780;25.948;2022-09-09T10:26:31;100716.41;;;24.50;63.91
45285;BME280;31026;43.780;25.948;2022-09-09T10:29:10;100709.00;;;24.52;64.12
45285;BME280;31026;43.780;25.948;2022-09-09T10:31:48;100710.00;;;24.51;64.06
45285;BME280;31026;43.780;25.948;2022-09-09T10:34:24;100700.91;;;24.52;63.94
45285;BME280;31026;43.780;25.948;2022-09-09T10:36:58;100694.13;;;24.48;64.04
45285;BME280;31026;43.780;25.948;2022-09-09T10:39:31;100689.72;;;24.47;64.16
45285;BME280;31026;43.780;25.948;2022-09-09T10:42:05;100687.19;;;24.45;64.15
45285;BME280;31026;43.780;25.948;2022-09-09T10:44:40;100692.25;;;24.48;64.06
45285;BME280;31026;43.780;25.948;2022-09-09T10:50:17;100681.63;;;24.47;64.16
45285;BME280;31026;43.780;25.948;2022-09-09T10:52:49;100679.78;;;24.47;63.94
45285;BME280;31026;43.780;25.948;2022-09-09T10:55:23;100679.78;;;24.47;63.92
45285;BME280;31026;43.780;25.948;2022-09-09T10:57:56;100680.09;;;24.44;64.17
45285;BME280;31026;43.780;25.948;2022-09-09T11:00:27;100677.25;;;24.46;64.11
45285;BME280;31026;43.780;25.948;2022-09-09T11:03:00;100686.56;;;24.51;63.97
45285;BME280;31026;43.780;25.948;2022-09-09T11:05:30;100675.38;;;24.46;64.04
45285;BME280;31026;43.780;25.948;2022-09-09T11:08:01;100681.97;;;24.52;63.85
45285;BME280;31026;43.780;25.948;2022-09-09T11:10:34;100670.63;;;24.48;64.15
45285;BME280;31026;43.780;25.948;2022-09-09T11:13:09;100678.44;;;24.51;63.90
45285;BME280;31026;43.780;25.948;2022-09-09T11:15:41;100664.94;;;24.51;63.75
45285;BME280;31026;43.780;25.948;2022-09-09T11:18:13;100675.75;;;24.51;63.80
45285;BME280;31026;43.780;25.948;2022-09-09T11:20:43;100679.09;;;24.53;63.78
45285;BME280;31026;43.780;25.948;2022-09-09T11:23:13;100677.75;;;24.49;64.24
45285;BME280;31026;43.780;25.948;2022-09-09T11:25:43;100671.66;;;24.47;64.23
45285;BME280;31026;43.780;25.948;2022-09-09T11:31:16;100667.75;;;24.50;64.30
45285;BME280;31026;43.780;25.948;2022-09-09T11:33:53;100668.97;;;24.47;64.14
45285;BME280;31026;43.780;25.948;2022-09-09T11:36:41;100658.31;;;24.46;64.29
45285;BME280;31026;43.780;25.948;2022-09-09T11:39:17;100662.69;;;24.47;64.30
45285;BME280;31026;43.780;25.948;2022-09-09T11:41:52;100659.00;;;24.48;64.08
45285;BME280;31026;43.780;25.948;2022-09-09T11:44:24;100660.84;;;24.47;64.37
45285;BME280;31026;43.780;25.948;2022-09-09T11:46:57;100650.22;;;24.46;63.98
45285;BME280;31026;43.780;25.948;2022-09-09T11:49:26;100647.34;;;24.47;63.89
45285;BME280;31026;43.780;25.948;2022-09-09T11:51:56;100649.72;;;24.50;64.14
45285;BME280;31026;43.780;25.948;2022-09-09T11:54:27;100656.13;;;24.49;64.12
45285;BME280;31026;43.780;25.948;2022-09-09T11:56:56;100631.13;;;24.47;63.97
45285;BME280;31026;43.780;25.948;2022-09-09T11:59:25;100642.78;;;24.48;64.16
45285;BME280;31026;43.780;25.948;2022-09-09T12:01:58;100640.91;;;24.48;64.06
45285;BME280;31026;43.780;25.948;2022-09-09T12:04:28;100641.44;;;24.52;64.14
45285;BME280;31026;43.780;25.948;2022-09-09T12:06:59;100631.44;;;24.52;64.17
45285;BME280;31026;43.780;25.948;2022-09-09T12:12:27;100631.44;;;24.52;64.08
45285;BME280;31026;43.780;25.948;2022-09-09T12:14:57;100635.84;;;24.53;63.76
45285;BME280;31026;43.780;25.948;2022-09-09T12:17:30;100629.41;;;24.54;64.12
45285;BME280;31026;43.780;25.948;2022-09-09T12:20:03;100615.75;;;24.48;64.04
45285;BME280;31026;43.780;25.948;2022-09-09T12:22:35;100622.50;;;24.52;64.07
45285;BME280;31026;43.780;25.948;2022-09-09T12:25:08;100612.53;;;24.52;64.10
45285;BME280;31026;43.780;25.948;2022-09-09T12:27:41;100616.25;;;24.51;64.00
45285;BME280;31026;43.780;25.948;2022-09-09T12:30:14;100610.66;;;24.53;64.09
45285;BME280;31026;43.780;25.948;2022-09-09T12:32:45;100612.38;;;24.46;64.15
45285;BME280;31026;43.780;25.948;2022-09-09T12:35:17;100599.69;;;24.46;64.02
45285;BME280;31026;43.780;25.948;2022-09-09T12:37:48;100596.66;;;24.49;64.13
45285;BME280;31026;43.780;25.948;2022-09-09T12:40:19;100599.34;;;24.49;64.02
45285;BME280;31026;43.780;25.948;2022-09-09T12:42:47;100593.28;;;24.47;64.14
45285;BME280;31026;43.780;25.948;2022-09-09T12:45:16;100582.47;;;24.47;64.17
45285;BME280;31026;43.780;25.948;2022-09-09T12:47:48;100589.72;;;24.47;64.10
45285;BME280;31026;43.780;25.948;2022-09-09T12:50:20;100572.00;;;24.44;64.32
45285;BME280;31026;43.780;25.948;2022-09-09T12:52:50;100578.72;;;24.48;64.24
45285;BME280;31026;43.780;25.948;2022-09-09T12:55:20;100568.25;;;24.45;64.40
45285;BME280;31026;43.780;25.948;2022-09-09T12:57:50;100558.13;;;24.47;64.08
45285;BME280;31026;43.780;25.948;2022-09-09T13:00:20;100557.09;;;24.48;64.27
45285;BME280;31026;43.780;25.948;2022-09-09T13:02:52;100579.75;;;24.55;63.97
45285;BME280;31026;43.780;25.948;2022-09-09T13:05:21;100559.81;;;24.48;64.17
45285;BME280;31026;43.780;25.948;2022-09-09T13:07:50;100557.78;;;24.50;64.09
45285;BME280;31026;43.780;25.948;2022-09-09T13:10:21;100545.13;;;24.51;64.27
45285;BME280;31026;43.780;25.948;2022-09-09T13:12:52;100547.66;;;24.52;63.93
45285;BME280;31026;43.780;25.948;2022-09-09T13:15:21;100551.84;;;24.55;64.09